sensor_id;sensor_type;location;lat;lon;timestamp;P1;durP1;ratioP1;P2;durP2;ratioP2
39454;SDS011;25155;41.890;23.446;2023-08-06T00:01:03;6.10;;;4.22;;
39454;SDS011;25155;41.890;23.446;2023-08-06T00:03:30;9.00;;;5.72;;
39454;SDS011;25155;41.890;23.446;2023-08-06T00:05:58;7.72;;;5.78;;
39454;SDS011;25155;41.890;23.446;2023-08-06T00:08:25;6.70;;;5.30;;
39454;SDS011;25155;41.890;23.446;2023-08-06T00:10:52;5.97;;;4.90;;
39454;SDS011;25155;41.890;23.446;2023-08-06T00:13:20;6.13;;;4.70;;
39454;SDS011;25155;41.890;23.446;2023-08-06T00:15:47;6.30;;;4.80;;
39454;SDS011;25155;41.890;23.446;2023-08-06T00:18:14;6.63;;;5.70;;
39454;SDS011;25155;41.890;23.446;2023-08-06T00:20:41;7.55;;;5.60;;
39454;SDS011;25155;41.890;23.446;2023-08-06T00:23:10;7.28;;;5.88;;
39454;SDS011;25155;41.890;23.446;2023-08-06T00:25:37;6.65;;;5.40;;
39454;SDS011;25155;41.890;23.446;2023-08-06T00:28:04;6.13;;;4.95;;
39454;SDS011;25155;41.890;23.446;2023-08-06T00:30:31;6.03;;;4.90;;
39454;SDS011;25155;41.890;23.446;2023-08-06T00:32:58;6.05;;;4.82;;
39454;SDS011;25155;41.890;23.446;2023-08-06T00:35:25;6.50;;;5.05;;
39454;SDS011;25155;41.890;23.446;2023-08-06T00:37:53;6.43;;;4.80;;
39454;SDS011;25155;41.890;23.446;2023-08-06T00:40:21;5.30;;;4.20;;
39454;SDS011;25155;41.890;23.446;2023-08-06T00:42:48;6.30;;;4.95;;
39454;SDS011;25155;41.890;23.446;2023-08-06T00:45:16;8.10;;;5.35;;
39454;SDS011;25155;41.890;23.446;2023-08-06T00:47:43;9.70;;;6.70;;
39454;SDS011;25155;41.890;23.446;2023-08-06T00:50:11;6.50;;;5.38;;
39454;SDS011;25155;41.890;23.446;2023-08-06T00:52:38;6.15;;;5.05;;
39454;SDS011;25155;41.890;23.446;2023-08-06T00:55:06;7.28;;;4.18;;
39454;SDS011;25155;41.890;23.446;2023-08-06T00:57:35;5.38;;;4.40;;
39454;SDS011;25155;41.890;23.446;2023-08-06T01:00:02;5.63;;;4.57;;
39454;SDS011;25155;41.890;23.446;2023-08-06T01:02:31;5.40;;;4.60;;
39454;SDS011;25155;41.890;23.446;2023-08-06T01:04:58;7.35;;;6.20;;
39454;SDS011;25155;41.890;23.446;2023-08-06T01:07:29;8.60;;;6.35;;
39454;SDS011;25155;41.890;23.446;2023-08-06T01:10:15;6.72;;;5.28;;
39454;SDS011;25155;41.890;23.446;2023-08-06T01:12:57;5.88;;;4.90;;
39454;SDS011;25155;41.890;23.446;2023-08-06T01:15:33;9.07;;;6.95;;
39454;SDS011;25155;41.890;23.446;2023-08-06T01:18:05;8.50;;;6.10;;
39454;SDS011;25155;41.890;23.446;2023-08-06T01:20:35;7.50;;;5.60;;
39454;SDS011;25155;41.890;23.446;2023-08-06T01:23:02;8.40;;;6.32;;
39454;SDS011;25155;41.890;23.446;2023-08-06T01:25:30;11.23;;;7.53;;
39454;SDS011;25155;41.890;23.446;2023-08-06T01:28:01;9.18;;;6.97;;
39454;SDS011;25155;41.890;23.446;2023-08-06T01:30:38;9.10;;;6.75;;
39454;SDS011;25155;41.890;23.446;2023-08-06T01:33:09;6.70;;;5.75;;
39454;SDS011;25155;41.890;23.446;2023-08-06T01:35:43;6.32;;;5.22;;
39454;SDS011;25155;41.890;23.446;2023-08-06T01:38:11;7.70;;;5.53;;
39454;SDS011;25155;41.890;23.446;2023-08-06T01:40:38;7.93;;;6.45;;
39454;SDS011;25155;41.890;23.446;2023-08-06T01:43:06;7.45;;;5.75;;
39454;SDS011;25155;41.890;23.446;2023-08-06T01:45:33;8.07;;;6.32;;
39454;SDS011;25155;41.890;23.446;2023-08-06T01:48:00;6.80;;;5.95;;
39454;SDS011;25155;41.890;23.446;2023-08-06T01:50:27;8.82;;;6.35;;
39454;SDS011;25155;41.890;23.446;2023-08-06T01:52:56;7.03;;;5.47;;
39454;SDS011;25155;41.890;23.446;2023-08-06T01:55:23;8.07;;;6.15;;
39454;SDS011;25155;41.890;23.446;2023-08-06T01:57:50;6.43;;;5.47;;
39454;SDS011;25155;41.890;23.446;2023-08-06T02:00:18;6.68;;;5.93;;
39454;SDS011;25155;41.890;23.446;2023-08-06T02:02:45;6.88;;;5.72;;
39454;SDS011;25155;41.890;23.446;2023-08-06T02:05:13;7.35;;;6.47;;
39454;SDS011;25155;41.890;23.446;2023-08-06T02:07:40;8.00;;;6.80;;
39454;SDS011;25155;41.890;23.446;2023-08-06T02:10:09;8.30;;;7.32;;
39454;SDS011;25155;41.890;23.446;2023-08-06T02:12:36;7.03;;;6.32;;
39454;SDS011;25155;41.890;23.446;2023-08-06T02:15:04;7.32;;;6.10;;
39454;SDS011;25155;41.890;23.446;2023-08-06T02:17:31;7.38;;;6.57;;
39454;SDS011;25155;41.890;23.446;2023-08-06T02:19:59;10.13;;;8.85;;
39454;SDS011;25155;41.890;23.446;2023-08-06T02:22:26;10.82;;;8.57;;
39454;SDS011;25155;41.890;23.446;2023-08-06T02:24:54;12.93;;;8.35;;
39454;SDS011;25155;41.890;23.446;2023-08-06T02:27:23;11.40;;;8.18;;
39454;SDS011;25155;41.890;23.446;2023-08-06T02:29:50;7.13;;;6.05;;
39454;SDS011;25155;41.890;23.446;2023-08-06T02:32:17;7.60;;;5.95;;
39454;SDS011;25155;41.890;23.446;2023-08-06T02:34:44;6.38;;;5.68;;
39454;SDS011;25155;41.890;23.446;2023-08-06T02:37:12;7.72;;;6.18;;
39454;SDS011;25155;41.890;23.446;2023-08-06T02:39:39;8.60;;;7.70;;
39454;SDS011;25155;41.890;23.446;2023-08-06T02:42:07;8.07;;;5.85;;
39454;SDS011;25155;41.890;23.446;2023-08-06T02:44:35;6.70;;;5.30;;
39454;SDS011;25155;41.890;23.446;2023-08-06T02:47:02;4.57;;;3.95;;
39454;SDS011;25155;41.890;23.446;2023-08-06T02:49:30;4.47;;;3.50;;
39454;SDS011;25155;41.890;23.446;2023-08-06T02:51:57;3.75;;;2.92;;
39454;SDS011;25155;41.890;23.446;2023-08-06T02:54:24;4.43;;;2.72;;
39454;SDS011;25155;41.890;23.446;2023-08-06T02:56:51;3.03;;;2.08;;
39454;SDS011;25155;41.890;23.446;2023-08-06T02:59:18;3.25;;;1.83;;
39454;SDS011;25155;41.890;23.446;2023-08-06T03:01:47;5.63;;;1.80;;
39454;SDS011;25155;41.890;23.446;2023-08-06T03:04:14;4.72;;;1.90;;
39454;SDS011;25155;41.890;23.446;2023-08-06T03:06:43;4.05;;;1.92;;
39454;SDS011;25155;41.890;23.446;2023-08-06T03:09:10;5.38;;;2.28;;
39454;SDS011;25155;41.890;23.446;2023-08-06T03:11:37;9.43;;;2.53;;
39454;SDS011;25155;41.890;23.446;2023-08-06T03:14:04;7.78;;;3.13;;
39454;SDS011;25155;41.890;23.446;2023-08-06T03:16:32;5.10;;;1.90;;
39454;SDS011;25155;41.890;23.446;2023-08-06T03:19:01;3.35;;;1.70;;
39454;SDS011;25155;41.890;23.446;2023-08-06T03:21:28;2.88;;;1.70;;
39454;SDS011;25155;41.890;23.446;2023-08-06T03:23:55;3.95;;;1.75;;
39454;SDS011;25155;41.890;23.446;2023-08-06T03:26:22;3.55;;;1.70;;
39454;SDS011;25155;41.890;23.446;2023-08-06T03:28:49;3.42;;;1.77;;
39454;SDS011;25155;41.890;23.446;2023-08-06T03:31:17;2.35;;;1.30;;
39454;SDS011;25155;41.890;23.446;2023-08-06T03:33:44;8.10;;;2.45;;
39454;SDS011;25155;41.890;23.446;2023-08-06T03:36:12;3.17;;;1.83;;
39454;SDS011;25155;41.890;23.446;2023-08-06T03:38:39;4.13;;;1.95;;
39454;SDS011;25155;41.890;23.446;2023-08-06T03:41:06;5.00;;;2.15;;
39454;SDS011;25155;41.890;23.446;2023-08-06T03:43:34;2.67;;;1.67;;
39454;SDS011;25155;41.890;23.446;2023-08-06T03:46:01;2.30;;;1.50;;
39454;SDS011;25155;41.890;23.446;2023-08-06T03:48:30;2.30;;;1.50;;
39454;SDS011;25155;41.890;23.446;2023-08-06T03:50:57;5.75;;;2.22;;
39454;SDS011;25155;41.890;23.446;2023-08-06T03:53:28;2.50;;;1.60;;
39454;SDS011;25155;41.890;23.446;2023-08-06T03:55:55;3.92;;;2.00;;
39454;SDS011;25155;41.890;23.446;2023-08-06T03:58:25;2.90;;;1.70;;
39454;SDS011;25155;41.890;23.446;2023-08-06T04:00:57;5.50;;;2.20;;
39454;SDS011;25155;41.890;23.446;2023-08-06T04:03:25;4.32;;;1.90;;
39454;SDS011;25155;41.890;23.446;2023-08-06T04:05:52;6.28;;;2.10;;
39454;SDS011;25155;41.890;23.446;2023-08-06T04:08:20;8.07;;;2.40;;
39454;SDS011;25155;41.890;23.446;2023-08-06T04:10:50;5.72;;;2.38;;
39454;SDS011;25155;41.890;23.446;2023-08-06T04:13:19;4.05;;;2.03;;
39454;SDS011;25155;41.890;23.446;2023-08-06T04:15:46;4.18;;;2.40;;
39454;SDS011;25155;41.890;23.446;2023-08-06T04:18:13;4.00;;;2.20;;
39454;SDS011;25155;41.890;23.446;2023-08-06T04:20:43;4.93;;;2.63;;
39454;SDS011;25155;41.890;23.446;2023-08-06T04:23:11;5.70;;;2.70;;
39454;SDS011;25155;41.890;23.446;2023-08-06T04:25:38;4.55;;;2.28;;
39454;SDS011;25155;41.890;23.446;2023-08-06T04:28:07;5.10;;;2.95;;
39454;SDS011;25155;41.890;23.446;2023-08-06T04:30:34;5.47;;;3.40;;
39454;SDS011;25155;41.890;23.446;2023-08-06T04:33:03;6.78;;;3.40;;
39454;SDS011;25155;41.890;23.446;2023-08-06T04:35:31;4.88;;;3.17;;
39454;SDS011;25155;41.890;23.446;2023-08-06T04:37:58;4.95;;;3.13;;
39454;SDS011;25155;41.890;23.446;2023-08-06T04:40:25;7.47;;;3.70;;
39454;SDS011;25155;41.890;23.446;2023-08-06T04:42:52;7.10;;;3.90;;
39454;SDS011;25155;41.890;23.446;2023-08-06T04:45:21;5.88;;;3.88;;
39454;SDS011;25155;41.890;23.446;2023-08-06T04:47:49;5.72;;;4.00;;
39454;SDS011;25155;41.890;23.446;2023-08-06T04:50:17;5.82;;;3.67;;
39454;SDS011;25155;41.890;23.446;2023-08-06T04:52:44;6.28;;;3.67;;
39454;SDS011;25155;41.890;23.446;2023-08-06T04:55:12;5.72;;;3.72;;
39454;SDS011;25155;41.890;23.446;2023-08-06T04:57:39;7.30;;;5.20;;
39454;SDS011;25155;41.890;23.446;2023-08-06T05:16:21;6.20;;;5.30;;
39454;SDS011;25155;41.890;23.446;2023-08-06T05:18:48;7.05;;;6.10;;
39454;SDS011;25155;41.890;23.446;2023-08-06T05:21:15;7.78;;;6.45;;
39454;SDS011;25155;41.890;23.446;2023-08-06T05:23:43;8.23;;;6.75;;
39454;SDS011;25155;41.890;23.446;2023-08-06T05:26:10;8.15;;;7.07;;
39454;SDS011;25155;41.890;23.446;2023-08-06T05:28:40;6.85;;;5.40;;
39454;SDS011;25155;41.890;23.446;2023-08-06T05:31:07;8.13;;;5.97;;
39454;SDS011;25155;41.890;23.446;2023-08-06T05:33:36;7.30;;;5.45;;
39454;SDS011;25155;41.890;23.446;2023-08-06T05:36:03;6.55;;;5.47;;
39454;SDS011;25155;41.890;23.446;2023-08-06T05:38:31;6.10;;;5.40;;
39454;SDS011;25155;41.890;23.446;2023-08-06T05:40:59;7.65;;;5.72;;
39454;SDS011;25155;41.890;23.446;2023-08-06T05:43:26;7.50;;;5.95;;
39454;SDS011;25155;41.890;23.446;2023-08-06T05:45:53;6.72;;;5.70;;
39454;SDS011;25155;41.890;23.446;2023-08-06T05:48:20;6.15;;;5.28;;
39454;SDS011;25155;41.890;23.446;2023-08-06T05:50:49;6.28;;;4.80;;
39454;SDS011;25155;41.890;23.446;2023-08-06T05:53:16;6.60;;;5.60;;
39454;SDS011;25155;41.890;23.446;2023-08-06T05:55:44;6.13;;;4.50;;
39454;SDS011;25155;41.890;23.446;2023-08-06T05:58:12;6.18;;;4.20;;
39454;SDS011;25155;41.890;23.446;2023-08-06T06:00:40;5.22;;;3.88;;
39454;SDS011;25155;41.890;23.446;2023-08-06T06:03:08;4.95;;;3.50;;
39454;SDS011;25155;41.890;23.446;2023-08-06T06:05:37;5.03;;;4.10;;
39454;SDS011;25155;41.890;23.446;2023-08-06T06:08:06;5.50;;;3.80;;
39454;SDS011;25155;41.890;23.446;2023-08-06T06:10:33;4.18;;;3.38;;
39454;SDS011;25155;41.890;23.446;2023-08-06T06:13:01;4.75;;;3.15;;
39454;SDS011;25155;41.890;23.446;2023-08-06T06:15:28;5.72;;;4.20;;
39454;SDS011;25155;41.890;23.446;2023-08-06T06:17:56;5.38;;;3.88;;
39454;SDS011;25155;41.890;23.446;2023-08-06T06:20:23;4.97;;;3.88;;
39454;SDS011;25155;41.890;23.446;2023-08-06T06:22:51;4.90;;;3.35;;
39454;SDS011;25155;41.890;23.446;2023-08-06T06:25:19;5.07;;;3.70;;
39454;SDS011;25155;41.890;23.446;2023-08-06T06:27:46;4.97;;;3.83;;
39454;SDS011;25155;41.890;23.446;2023-08-06T06:30:14;4.43;;;3.40;;
39454;SDS011;25155;41.890;23.446;2023-08-06T06:32:41;4.30;;;3.40;;
39454;SDS011;25155;41.890;23.446;2023-08-06T06:35:09;4.60;;;3.38;;
39454;SDS011;25155;41.890;23.446;2023-08-06T06:37:36;5.03;;;3.75;;
39454;SDS011;25155;41.890;23.446;2023-08-06T06:40:03;5.28;;;3.55;;
39454;SDS011;25155;41.890;23.446;2023-08-06T06:42:33;4.75;;;3.33;;
39454;SDS011;25155;41.890;23.446;2023-08-06T06:45:00;5.93;;;3.85;;
39454;SDS011;25155;41.890;23.446;2023-08-06T06:47:27;4.60;;;3.53;;
39454;SDS011;25155;41.890;23.446;2023-08-06T06:49:54;4.63;;;3.70;;
39454;SDS011;25155;41.890;23.446;2023-08-06T06:52:21;5.28;;;4.00;;
39454;SDS011;25155;41.890;23.446;2023-08-06T06:54:49;5.22;;;3.88;;
39454;SDS011;25155;41.890;23.446;2023-08-06T06:57:16;7.00;;;3.97;;
39454;SDS011;25155;41.890;23.446;2023-08-06T06:59:44;6.10;;;4.35;;
39454;SDS011;25155;41.890;23.446;2023-08-06T07:02:12;5.10;;;4.40;;
39454;SDS011;25155;41.890;23.446;2023-08-06T07:04:39;5.45;;;4.60;;
39454;SDS011;25155;41.890;23.446;2023-08-06T07:07:06;5.93;;;5.30;;
39454;SDS011;25155;41.890;23.446;2023-08-06T07:09:33;6.25;;;5.38;;
39454;SDS011;25155;41.890;23.446;2023-08-06T07:12:01;5.95;;;5.20;;
39454;SDS011;25155;41.890;23.446;2023-08-06T07:14:29;5.90;;;5.30;;
39454;SDS011;25155;41.890;23.446;2023-08-06T07:16:57;8.52;;;6.15;;
39454;SDS011;25155;41.890;23.446;2023-08-06T07:19:24;6.95;;;5.57;;
39454;SDS011;25155;41.890;23.446;2023-08-06T07:21:52;5.93;;;5.22;;
39454;SDS011;25155;41.890;23.446;2023-08-06T07:24:19;6.50;;;5.57;;
39454;SDS011;25155;41.890;23.446;2023-08-06T07:26:46;7.95;;;5.82;;
39454;SDS011;25155;41.890;23.446;2023-08-06T07:29:13;6.53;;;5.53;;
39454;SDS011;25155;41.890;23.446;2023-08-06T07:31:44;6.88;;;6.18;;
39454;SDS011;25155;41.890;23.446;2023-08-06T07:34:13;8.02;;;5.97;;
39454;SDS011;25155;41.890;23.446;2023-08-06T07:36:40;7.68;;;5.78;;
39454;SDS011;25155;41.890;23.446;2023-08-06T07:39:11;5.82;;;5.20;;
39454;SDS011;25155;41.890;23.446;2023-08-06T07:41:38;5.45;;;4.68;;
39454;SDS011;25155;41.890;23.446;2023-08-06T07:44:06;5.57;;;4.68;;
39454;SDS011;25155;41.890;23.446;2023-08-06T07:46:33;6.20;;;4.50;;
39454;SDS011;25155;41.890;23.446;2023-08-06T07:49:01;5.75;;;4.40;;
39454;SDS011;25155;41.890;23.446;2023-08-06T07:51:30;6.82;;;4.43;;
39454;SDS011;25155;41.890;23.446;2023-08-06T07:53:57;5.03;;;3.85;;
39454;SDS011;25155;41.890;23.446;2023-08-06T07:56:25;5.78;;;4.00;;
39454;SDS011;25155;41.890;23.446;2023-08-06T07:58:52;4.82;;;3.80;;
39454;SDS011;25155;41.890;23.446;2023-08-06T08:01:19;5.70;;;3.88;;
39454;SDS011;25155;41.890;23.446;2023-08-06T08:03:46;4.68;;;3.70;;
39454;SDS011;25155;41.890;23.446;2023-08-06T08:06:13;5.00;;;3.50;;
39454;SDS011;25155;41.890;23.446;2023-08-06T08:08:42;5.97;;;4.20;;
39454;SDS011;25155;41.890;23.446;2023-08-06T08:11:09;5.72;;;3.80;;
39454;SDS011;25155;41.890;23.446;2023-08-06T08:13:36;6.10;;;4.25;;
39454;SDS011;25155;41.890;23.446;2023-08-06T08:16:04;6.70;;;4.10;;
39454;SDS011;25155;41.890;23.446;2023-08-06T08:18:31;4.93;;;3.75;;
39454;SDS011;25155;41.890;23.446;2023-08-06T08:20:58;5.55;;;3.70;;
39454;SDS011;25155;41.890;23.446;2023-08-06T08:23:26;5.20;;;3.50;;
39454;SDS011;25155;41.890;23.446;2023-08-06T08:25:54;4.97;;;3.45;;
39454;SDS011;25155;41.890;23.446;2023-08-06T08:28:21;5.18;;;3.45;;
39454;SDS011;25155;41.890;23.446;2023-08-06T08:30:49;6.55;;;3.60;;
39454;SDS011;25155;41.890;23.446;2023-08-06T08:33:16;5.28;;;2.90;;
39454;SDS011;25155;41.890;23.446;2023-08-06T08:35:45;6.05;;;3.13;;
39454;SDS011;25155;41.890;23.446;2023-08-06T08:38:13;4.38;;;3.42;;
39454;SDS011;25155;41.890;23.446;2023-08-06T08:40:41;5.38;;;3.38;;
39454;SDS011;25155;41.890;23.446;2023-08-06T08:43:15;4.32;;;3.20;;
39454;SDS011;25155;41.890;23.446;2023-08-06T08:45:44;5.75;;;3.78;;
39454;SDS011;25155;41.890;23.446;2023-08-06T08:48:16;5.72;;;4.07;;
39454;SDS011;25155;41.890;23.446;2023-08-06T08:50:45;6.07;;;3.42;;
39454;SDS011;25155;41.890;23.446;2023-08-06T08:53:15;5.40;;;3.20;;
39454;SDS011;25155;41.890;23.446;2023-08-06T08:55:43;4.25;;;3.05;;
39454;SDS011;25155;41.890;23.446;2023-08-06T08:58:14;4.70;;;3.33;;
39454;SDS011;25155;41.890;23.446;2023-08-06T09:00:42;4.10;;;3.00;;
39454;SDS011;25155;41.890;23.446;2023-08-06T09:03:12;4.45;;;3.15;;
39454;SDS011;25155;41.890;23.446;2023-08-06T09:05:40;6.45;;;3.22;;
39454;SDS011;25155;41.890;23.446;2023-08-06T09:08:11;4.68;;;3.30;;
39454;SDS011;25155;41.890;23.446;2023-08-06T09:10:43;4.43;;;3.28;;
39454;SDS011;25155;41.890;23.446;2023-08-06T09:13:11;5.60;;;3.40;;
39454;SDS011;25155;41.890;23.446;2023-08-06T09:15:40;4.72;;;3.00;;
39454;SDS011;25155;41.890;23.446;2023-08-06T09:18:09;4.35;;;3.05;;
39454;SDS011;25155;41.890;23.446;2023-08-06T09:20:37;5.55;;;3.20;;
39454;SDS011;25155;41.890;23.446;2023-08-06T09:23:06;5.80;;;3.47;;
39454;SDS011;25155;41.890;23.446;2023-08-06T09:25:36;5.23;;;3.17;;
39454;SDS011;25155;41.890;23.446;2023-08-06T09:30:33;4.25;;;3.00;;
39454;SDS011;25155;41.890;23.446;2023-08-06T09:33:05;4.70;;;3.40;;
39454;SDS011;25155;41.890;23.446;2023-08-06T09:35:37;5.60;;;3.17;;
39454;SDS011;25155;41.890;23.446;2023-08-06T09:38:07;5.00;;;2.97;;
39454;SDS011;25155;41.890;23.446;2023-08-06T09:40:36;4.60;;;3.22;;
39454;SDS011;25155;41.890;23.446;2023-08-06T09:43:05;4.20;;;3.30;;
39454;SDS011;25155;41.890;23.446;2023-08-06T09:45:33;4.25;;;3.00;;
39454;SDS011;25155;41.890;23.446;2023-08-06T09:48:03;5.18;;;3.05;;
39454;SDS011;25155;41.890;23.446;2023-08-06T09:50:33;6.43;;;3.20;;
39454;SDS011;25155;41.890;23.446;2023-08-06T09:53:02;5.03;;;3.58;;
39454;SDS011;25155;41.890;23.446;2023-08-06T09:55:30;4.15;;;2.60;;
39454;SDS011;25155;41.890;23.446;2023-08-06T09:57:59;3.70;;;2.40;;
39454;SDS011;25155;41.890;23.446;2023-08-06T10:00:26;4.30;;;2.90;;
39454;SDS011;25155;41.890;23.446;2023-08-06T10:02:59;4.13;;;2.80;;
39454;SDS011;25155;41.890;23.446;2023-08-06T10:05:28;3.80;;;2.58;;
39454;SDS011;25155;41.890;23.446;2023-08-06T10:07:58;5.90;;;2.50;;
39454;SDS011;25155;41.890;23.446;2023-08-06T10:12:56;4.10;;;2.70;;
39454;SDS011;25155;41.890;23.446;2023-08-06T10:15:26;3.90;;;2.40;;
39454;SDS011;25155;41.890;23.446;2023-08-06T10:20:26;4.22;;;2.70;;
39454;SDS011;25155;41.890;23.446;2023-08-06T10:23:01;4.43;;;2.50;;
39454;SDS011;25155;41.890;23.446;2023-08-06T10:25:30;4.18;;;2.38;;
39454;SDS011;25155;41.890;23.446;2023-08-06T10:27:59;3.40;;;2.40;;
39454;SDS011;25155;41.890;23.446;2023-08-06T10:30:27;5.00;;;2.95;;
39454;SDS011;25155;41.890;23.446;2023-08-06T10:32:57;4.78;;;2.88;;
39454;SDS011;25155;41.890;23.446;2023-08-06T10:35:30;4.43;;;2.90;;
39454;SDS011;25155;41.890;23.446;2023-08-06T10:37:59;4.47;;;3.15;;
39454;SDS011;25155;41.890;23.446;2023-08-06T10:40:29;4.28;;;2.70;;
39454;SDS011;25155;41.890;23.446;2023-08-06T10:42:58;5.10;;;2.88;;
39454;SDS011;25155;41.890;23.446;2023-08-06T10:45:26;4.00;;;2.60;;
39454;SDS011;25155;41.890;23.446;2023-08-06T10:47:56;3.88;;;2.90;;
39454;SDS011;25155;41.890;23.446;2023-08-06T10:50:24;4.35;;;2.80;;
39454;SDS011;25155;41.890;23.446;2023-08-06T10:52:51;3.42;;;2.70;;
39454;SDS011;25155;41.890;23.446;2023-08-06T10:55:24;4.07;;;2.80;;
39454;SDS011;25155;41.890;23.446;2023-08-06T10:57:53;4.47;;;2.95;;
39454;SDS011;25155;41.890;23.446;2023-08-06T11:00:21;5.05;;;3.15;;
39454;SDS011;25155;41.890;23.446;2023-08-06T11:02:49;5.28;;;2.90;;
39454;SDS011;25155;41.890;23.446;2023-08-06T11:05:18;5.20;;;3.15;;
39454;SDS011;25155;41.890;23.446;2023-08-06T11:07:45;4.57;;;3.20;;
39454;SDS011;25155;41.890;23.446;2023-08-06T11:10:14;3.70;;;2.70;;
39454;SDS011;25155;41.890;23.446;2023-08-06T11:12:43;4.00;;;2.60;;
39454;SDS011;25155;41.890;23.446;2023-08-06T11:15:11;4.25;;;3.03;;
39454;SDS011;25155;41.890;23.446;2023-08-06T11:17:39;4.13;;;2.88;;
39454;SDS011;25155;41.890;23.446;2023-08-06T11:20:08;4.93;;;2.90;;
39454;SDS011;25155;41.890;23.446;2023-08-06T11:22:36;4.80;;;2.70;;
39454;SDS011;25155;41.890;23.446;2023-08-06T11:25:04;4.95;;;3.00;;
39454;SDS011;25155;41.890;23.446;2023-08-06T11:27:32;3.40;;;2.40;;
39454;SDS011;25155;41.890;23.446;2023-08-06T11:30:01;4.32;;;2.58;;
39454;SDS011;25155;41.890;23.446;2023-08-06T11:32:29;2.97;;;2.28;;
39454;SDS011;25155;41.890;23.446;2023-08-06T11:34:56;4.40;;;2.60;;
39454;SDS011;25155;41.890;23.446;2023-08-06T11:37:24;4.03;;;2.72;;
39454;SDS011;25155;41.890;23.446;2023-08-06T11:39:51;5.43;;;2.50;;
39454;SDS011;25155;41.890;23.446;2023-08-06T11:42:18;3.65;;;2.40;;
39454;SDS011;25155;41.890;23.446;2023-08-06T11:44:46;3.63;;;2.50;;
39454;SDS011;25155;41.890;23.446;2023-08-06T11:47:16;4.25;;;2.72;;
39454;SDS011;25155;41.890;23.446;2023-08-06T11:49:45;4.07;;;2.38;;
39454;SDS011;25155;41.890;23.446;2023-08-06T11:52:14;4.55;;;2.67;;
39454;SDS011;25155;41.890;23.446;2023-08-06T11:57:11;4.05;;;2.50;;
39454;SDS011;25155;41.890;23.446;2023-08-06T11:59:39;3.78;;;2.53;;
39454;SDS011;25155;41.890;23.446;2023-08-06T12:02:08;4.25;;;2.60;;
39454;SDS011;25155;41.890;23.446;2023-08-06T12:07:31;3.80;;;2.30;;
39454;SDS011;25155;41.890;23.446;2023-08-06T12:09:59;4.28;;;2.75;;
39454;SDS011;25155;41.890;23.446;2023-08-06T12:12:27;4.03;;;2.50;;
39454;SDS011;25155;41.890;23.446;2023-08-06T12:14:55;3.90;;;2.65;;
39454;SDS011;25155;41.890;23.446;2023-08-06T12:17:22;4.88;;;2.60;;
39454;SDS011;25155;41.890;23.446;2023-08-06T12:19:50;3.95;;;2.58;;
39454;SDS011;25155;41.890;23.446;2023-08-06T12:22:19;4.18;;;2.83;;
39454;SDS011;25155;41.890;23.446;2023-08-06T12:24:47;3.80;;;2.25;;
39454;SDS011;25155;41.890;23.446;2023-08-06T12:27:14;3.22;;;2.25;;
39454;SDS011;25155;41.890;23.446;2023-08-06T12:29:42;3.60;;;2.33;;
39454;SDS011;25155;41.890;23.446;2023-08-06T12:32:10;3.75;;;2.30;;
39454;SDS011;25155;41.890;23.446;2023-08-06T12:34:37;3.67;;;2.20;;
39454;SDS011;25155;41.890;23.446;2023-08-06T12:37:05;3.53;;;2.40;;
39454;SDS011;25155;41.890;23.446;2023-08-06T12:39:34;4.03;;;2.40;;
39454;SDS011;25155;41.890;23.446;2023-08-06T12:42:02;3.20;;;2.22;;
39454;SDS011;25155;41.890;23.446;2023-08-06T12:44:31;3.78;;;2.20;;
39454;SDS011;25155;41.890;23.446;2023-08-06T12:46:59;3.47;;;2.40;;
39454;SDS011;25155;41.890;23.446;2023-08-06T12:49:26;3.72;;;2.40;;
39454;SDS011;25155;41.890;23.446;2023-08-06T12:51:54;3.97;;;2.42;;
39454;SDS011;25155;41.890;23.446;2023-08-06T12:54:24;3.38;;;2.22;;
39454;SDS011;25155;41.890;23.446;2023-08-06T12:56:52;3.53;;;2.10;;
39454;SDS011;25155;41.890;23.446;2023-08-06T12:59:20;5.53;;;2.40;;
39454;SDS011;25155;41.890;23.446;2023-08-06T13:01:47;4.25;;;2.50;;
39454;SDS011;25155;41.890;23.446;2023-08-06T13:04:14;3.33;;;2.30;;
39454;SDS011;25155;41.890;23.446;2023-08-06T13:06:42;3.50;;;2.33;;
39454;SDS011;25155;41.890;23.446;2023-08-06T13:09:09;5.05;;;2.40;;
39454;SDS011;25155;41.890;23.446;2023-08-06T13:11:37;3.85;;;2.40;;
39454;SDS011;25155;41.890;23.446;2023-08-06T13:14:08;4.25;;;2.47;;
39454;SDS011;25155;41.890;23.446;2023-08-06T13:19:05;6.18;;;2.28;;
39454;SDS011;25155;41.890;23.446;2023-08-06T13:21:33;3.75;;;2.30;;
39454;SDS011;25155;41.890;23.446;2023-08-06T13:24:02;3.53;;;2.25;;
39454;SDS011;25155;41.890;23.446;2023-08-06T13:26:29;3.15;;;2.05;;
39454;SDS011;25155;41.890;23.446;2023-08-06T13:28:57;4.38;;;2.38;;
39454;SDS011;25155;41.890;23.446;2023-08-06T13:31:26;3.20;;;2.30;;
39454;SDS011;25155;41.890;23.446;2023-08-06T13:33:54;4.07;;;2.00;;
39454;SDS011;25155;41.890;23.446;2023-08-06T13:36:23;3.42;;;2.10;;
39454;SDS011;25155;41.890;23.446;2023-08-06T13:38:51;2.55;;;2.00;;
39454;SDS011;25155;41.890;23.446;2023-08-06T13:41:18;4.00;;;2.17;;
39454;SDS011;25155;41.890;23.446;2023-08-06T13:43:46;3.85;;;1.90;;
39454;SDS011;25155;41.890;23.446;2023-08-06T13:46:13;3.00;;;1.90;;
39454;SDS011;25155;41.890;23.446;2023-08-06T13:48:43;2.83;;;1.90;;
39454;SDS011;25155;41.890;23.446;2023-08-06T13:51:12;3.28;;;1.85;;
39454;SDS011;25155;41.890;23.446;2023-08-06T13:53:39;3.40;;;1.90;;
39454;SDS011;25155;41.890;23.446;2023-08-06T13:56:08;4.22;;;1.98;;
39454;SDS011;25155;41.890;23.446;2023-08-06T13:58:36;4.30;;;2.00;;
39454;SDS011;25155;41.890;23.446;2023-08-06T14:01:03;2.67;;;1.60;;
39454;SDS011;25155;41.890;23.446;2023-08-06T14:03:31;2.55;;;1.77;;
39454;SDS011;25155;41.890;23.446;2023-08-06T14:05:59;2.13;;;1.65;;
39454;SDS011;25155;41.890;23.446;2023-08-06T14:08:26;2.22;;;1.67;;
39454;SDS011;25155;41.890;23.446;2023-08-06T14:10:54;2.17;;;1.70;;
39454;SDS011;25155;41.890;23.446;2023-08-06T14:13:21;2.15;;;1.67;;
39454;SDS011;25155;41.890;23.446;2023-08-06T14:15:48;2.22;;;1.63;;
39454;SDS011;25155;41.890;23.446;2023-08-06T14:18:16;2.85;;;1.77;;
39454;SDS011;25155;41.890;23.446;2023-08-06T14:20:43;4.05;;;1.83;;
39454;SDS011;25155;41.890;23.446;2023-08-06T14:23:12;2.58;;;1.80;;
39454;SDS011;25155;41.890;23.446;2023-08-06T14:25:39;2.35;;;1.80;;
39454;SDS011;25155;41.890;23.446;2023-08-06T14:28:07;2.53;;;1.50;;
39454;SDS011;25155;41.890;23.446;2023-08-06T14:30:34;2.28;;;1.75;;
39454;SDS011;25155;41.890;23.446;2023-08-06T14:33:03;2.45;;;1.70;;
39454;SDS011;25155;41.890;23.446;2023-08-06T14:35:30;2.45;;;1.67;;
39454;SDS011;25155;41.890;23.446;2023-08-06T14:37:57;1.92;;;1.60;;
39454;SDS011;25155;41.890;23.446;2023-08-06T14:40:26;2.95;;;1.70;;
39454;SDS011;25155;41.890;23.446;2023-08-06T14:42:59;2.28;;;1.60;;
39454;SDS011;25155;41.890;23.446;2023-08-06T14:45:26;3.75;;;1.50;;
39454;SDS011;25155;41.890;23.446;2023-08-06T14:47:53;1.50;;;1.40;;
39454;SDS011;25155;41.890;23.446;2023-08-06T14:50:22;1.63;;;1.50;;
39454;SDS011;25155;41.890;23.446;2023-08-06T14:52:50;2.40;;;1.60;;
39454;SDS011;25155;41.890;23.446;2023-08-06T14:55:17;2.35;;;1.55;;
39454;SDS011;25155;41.890;23.446;2023-08-06T14:57:52;1.42;;;1.30;;
39454;SDS011;25155;41.890;23.446;2023-08-06T15:02:49;1.70;;;1.60;;
39454;SDS011;25155;41.890;23.446;2023-08-06T15:05:16;1.48;;;1.30;;
39454;SDS011;25155;41.890;23.446;2023-08-06T15:07:44;2.10;;;1.50;;
39454;SDS011;25155;41.890;23.446;2023-08-06T15:10:14;1.83;;;1.50;;
39454;SDS011;25155;41.890;23.446;2023-08-06T15:12:41;1.85;;;1.50;;